createdAt,value
2018-03-21T00:03:28.400Z,102056
2018-03-21T00:08:31.906Z,102062
2018-03-21T00:13:36.350Z,102070
2018-03-21T00:18:39.848Z,102076
2018-03-21T00:23:42.965Z,102077
2018-03-21T00:28:46.464Z,102081
2018-03-21T00:33:49.948Z,102093
2018-03-21T00:38:53.081Z,102090
2018-03-21T00:43:56.557Z,102094
2018-03-21T00:49:00.041Z,102091
2018-03-21T00:54:03.528Z,102089
2018-03-21T00:59:07.979Z,102094
2018-03-21T01:04:11.476Z,102106
2018-03-21T01:09:15.697Z,102108
2018-03-21T01:14:19.928Z,102107
2018-03-21T01:19:24.360Z,102106
2018-03-21T01:24:28.985Z,102112
2018-03-21T01:29:32.088Z,102111
2018-03-21T01:34:36.313Z,102109
2018-03-21T01:39:40.772Z,102121
2018-03-21T01:44:45.188Z,102116
2018-03-21T01:49:48.293Z,102118
2018-03-21T01:54:52.144Z,102111
2018-03-21T01:59:55.267Z,102106
2018-03-21T02:04:59.124Z,102106
2018-03-21T02:10:02.613Z,102104
2018-03-21T02:15:07.224Z,102100
2018-03-21T02:20:10.323Z,102103
2018-03-21T02:25:13.432Z,102103
2018-03-21T02:30:16.536Z,102108
2018-03-21T02:35:19.689Z,102106
2018-03-21T02:40:24.108Z,102115
2018-03-21T02:45:27.974Z,102111
2018-03-21T02:50:31.477Z,102116
2018-03-21T02:55:34.588Z,102123
2018-03-21T03:00:39.172Z,102123
2018-03-21T03:05:43.421Z,102121
2018-03-21T03:10:46.522Z,102128
2018-03-21T03:15:51.129Z,102131
2018-03-21T03:20:54.611Z,102136
2018-03-21T03:25:59.064Z,102146
2018-03-21T03:31:02.941Z,102145
2018-03-21T03:36:07.542Z,102145
2018-03-21T03:41:11.056Z,102147
2018-03-21T03:46:15.287Z,102150
2018-03-21T03:51:19.529Z,102152
2018-03-21T03:56:23.988Z,102153
2018-03-21T04:01:28.013Z,102154
2018-03-21T04:06:32.463Z,102155
2018-03-21T04:11:35.568Z,102159
2018-03-21T04:16:39.068Z,102156
2018-03-21T04:21:42.571Z,102157
2018-03-21T04:26:46.436Z,102160
2018-03-21T04:31:51.055Z,102158
2018-03-21T04:37:04.152Z,102157
2018-03-21T04:42:08.618Z,102166
2018-03-21T04:47:13.224Z,102163
2018-03-21T04:52:17.714Z,102162
2018-03-21T04:57:21.224Z,102165
2018-03-21T05:02:25.097Z,102158
2018-03-21T05:07:29.564Z,102165
2018-03-21T05:12:34.015Z,102162
2018-03-21T05:17:37.108Z,102168
2018-03-21T05:22:40.207Z,102167
2018-03-21T05:27:43.308Z,102167
2018-03-21T05:32:46.403Z,102176
2018-03-21T05:37:50.854Z,102179
2018-03-21T05:42:54.372Z,102177
2018-03-21T05:47:58.604Z,102180
2018-03-21T05:53:02.440Z,102185
2018-03-21T05:58:06.251Z,102185
2018-03-21T06:03:10.716Z,102191
2018-03-21T06:08:13.816Z,102193
2018-03-21T06:13:16.920Z,102203
2018-03-21T06:18:20.034Z,102210
2018-03-21T06:23:24.482Z,102209
2018-03-21T06:28:27.555Z,102221
2018-03-21T06:33:30.633Z,102225
2018-03-21T06:38:33.721Z,102226
2018-03-21T06:43:37.572Z,102236
2018-03-21T06:48:41.422Z,102238
2018-03-21T06:53:45.847Z,102246
2018-03-21T06:58:48.935Z,102259
2018-03-21T07:03:52.415Z,102257
2018-03-21T07:08:55.491Z,102255
2018-03-21T07:14:16.475Z,102265
2018-03-21T07:19:19.575Z,102272
2018-03-21T07:24:23.048Z,102280
2018-03-21T07:29:26.144Z,102292
2018-03-21T07:34:29.231Z,102301
2018-03-21T07:39:33.683Z,102307
2018-03-21T07:44:36.784Z,102313
2018-03-21T07:49:40.300Z,102312
2018-03-21T07:54:45.884Z,102326
2018-03-21T07:59:49.084Z,102329
2018-03-21T08:04:52.563Z,102336
2018-03-21T08:09:56.091Z,102346
2018-03-21T08:15:00.011Z,102344
2018-03-21T08:20:03.102Z,102351
2018-03-21T08:25:06.623Z,102336
2018-03-21T08:30:10.448Z,102333
2018-03-21T08:35:14.308Z,102324
2018-03-21T08:40:18.558Z,102330
2018-03-21T08:45:21.652Z,102339
2018-03-21T08:50:25.529Z,102342
2018-03-21T08:55:28.713Z,102342
2018-03-21T09:00:32.576Z,102347
2018-03-21T09:05:37.072Z,102350
2018-03-21T09:10:40.161Z,102349
2018-03-21T09:15:43.255Z,102354
2018-03-21T09:20:47.123Z,102338
2018-03-21T09:25:50.234Z,102367
2018-03-21T09:30:53.751Z,102369
2018-03-21T09:35:58.738Z,102358
2018-03-21T09:41:07.062Z,102361
2018-03-21T09:46:10.918Z,102361
2018-03-21T09:51:14.197Z,102370
2018-03-21T09:56:18.122Z,102378
2018-03-21T10:01:22.377Z,102365
2018-03-21T10:06:25.914Z,102362
2018-03-21T10:11:28.988Z,102355
2018-03-21T10:16:32.088Z,102348
2018-03-21T10:21:35.934Z,102357
2018-03-21T10:26:39.053Z,102353
2018-03-21T10:31:42.156Z,102356
2018-03-21T10:36:46.156Z,102359
2018-03-21T10:41:51.700Z,102353
2018-03-21T10:46:56.297Z,102353
2018-03-21T10:52:00.785Z,102354
2018-03-21T10:57:04.270Z,102344
2018-03-21T11:02:13.677Z,102347
2018-03-21T11:07:17.948Z,102344
2018-03-21T11:12:21.052Z,102336
2018-03-21T11:17:24.605Z,102338
2018-03-21T11:22:27.748Z,102332
2018-03-21T11:27:31.298Z,102341
2018-03-21T11:32:35.210Z,102340
2018-03-21T11:37:39.451Z,102345
2018-03-21T11:42:43.886Z,102344
2018-03-21T11:47:47.758Z,102348
2018-03-21T11:52:50.844Z,102340
2018-03-21T11:57:55.062Z,102319
2018-03-21T12:02:58.548Z,102313
2018-03-21T12:08:03.020Z,102301
2018-03-21T12:13:06.101Z,102302
2018-03-21T12:18:09.950Z,102299
2018-03-21T12:23:14.160Z,102297
2018-03-21T12:28:18.383Z,102300
2018-03-21T12:33:22.627Z,102294
2018-03-21T12:38:26.480Z,102294
2018-03-21T12:43:29.613Z,102298
2018-03-21T12:48:33.477Z,102294
2018-03-21T12:53:37.898Z,102284
2018-03-21T12:58:41.003Z,102264
2018-03-21T13:03:46.367Z,102257
2018-03-21T13:08:49.872Z,102256
2018-03-21T13:13:54.343Z,102255
2018-03-21T13:18:57.442Z,102239
2018-03-21T13:24:01.279Z,102236
2018-03-21T13:29:05.367Z,102221
2018-03-21T13:34:08.483Z,102223
2018-03-21T13:39:12.723Z,102218
2018-03-21T13:44:17.487Z,102215
2018-03-21T13:49:20.552Z,102214
2018-03-21T13:54:23.645Z,102203
2018-03-21T13:59:27.516Z,102211
2018-03-21T14:04:31.980Z,102214
2018-03-21T14:09:36.579Z,102220
2018-03-21T14:14:39.720Z,102221
2018-03-21T14:19:44.329Z,102221
2018-03-21T14:24:48.494Z,102210
2018-03-21T14:29:52.353Z,102199
2018-03-21T14:34:56.584Z,102203
2018-03-21T14:40:01.048Z,102189
2018-03-21T14:45:04.940Z,102180
2018-03-21T14:50:08.062Z,102170
2018-03-21T14:55:11.148Z,102161
2018-03-21T15:00:15.013Z,102173
2018-03-21T15:05:18.889Z,102162
2018-03-21T15:10:22.738Z,102157
2018-03-21T15:15:27.200Z,102160
2018-03-21T15:20:32.550Z,102163
2018-03-21T15:25:35.645Z,102156
2018-03-21T15:30:38.755Z,102159
2018-03-21T15:35:41.869Z,102150
2018-03-21T15:40:46.466Z,102154
2018-03-21T15:45:49.602Z,102150
2018-03-21T15:50:52.663Z,102163
2018-03-21T15:55:55.751Z,102160
2018-03-21T16:00:59.828Z,102154
2018-03-21T16:06:03.684Z,102149
2018-03-21T16:11:06.811Z,102151
2018-03-21T16:16:09.915Z,102144
2018-03-21T16:21:13.048Z,102132
2018-03-21T16:26:16.103Z,102128
2018-03-21T16:31:19.240Z,102131
2018-03-21T16:36:22.341Z,102123
2018-03-21T16:41:25.431Z,102116
2018-03-21T16:46:28.923Z,102115
2018-03-21T16:51:32.004Z,102118
2018-03-21T16:56:35.084Z,102115
2018-03-21T17:01:38.168Z,102121
2018-03-21T17:06:42.618Z,102119
2018-03-21T17:11:45.703Z,102113
2018-03-21T17:16:48.845Z,102111
2018-03-21T17:21:51.936Z,102104
2018-03-21T17:26:55.013Z,102097
2018-03-21T17:31:59.459Z,102105
2018-03-21T17:37:02.562Z,102102
2018-03-21T17:42:06.416Z,102096
2018-03-21T17:47:10.879Z,102102
2018-03-21T17:52:15.387Z,102102
2018-03-21T17:57:19.819Z,102101
2018-03-21T18:02:23.678Z,102097
2018-03-21T18:07:26.777Z,102091
2018-03-21T18:12:31.556Z,102098
2018-03-21T18:17:36.994Z,102100
2018-03-21T18:22:40.486Z,102095
2018-03-21T18:27:44.694Z,102092
2018-03-21T18:32:48.535Z,102089
2018-03-21T18:37:52.418Z,102078
2018-03-21T18:42:57.053Z,102066
2018-03-21T18:48:00.465Z,102059
2018-03-21T18:53:03.561Z,102060
2018-03-21T18:58:07.424Z,102053
2018-03-21T19:03:11.682Z,102052
2018-03-21T19:08:16.285Z,102053
2018-03-21T19:13:20.302Z,102056
2018-03-21T19:18:22.490Z,102047
2018-03-21T19:23:27.194Z,102039
2018-03-21T19:28:31.052Z,102040
2018-03-21T19:33:34.551Z,102042
2018-03-21T19:38:38.412Z,102040
2018-03-21T19:43:41.505Z,102037
2018-03-21T19:48:44.631Z,102034
2018-03-21T19:53:49.108Z,102034
2018-03-21T19:58:52.202Z,102040
2018-03-21T20:03:55.301Z,102036
2018-03-21T20:08:58.793Z,102028
2018-03-21T20:14:03.029Z,102024
2018-03-21T20:19:06.133Z,102012
2018-03-21T20:24:09.222Z,102010
2018-03-21T20:29:12.331Z,102003
2018-03-21T20:34:15.429Z,101994
2018-03-21T20:39:19.868Z,101994
2018-03-21T20:44:23.740Z,101986
2018-03-21T20:49:28.901Z,101988
2018-03-21T20:54:33.131Z,101992
2018-03-21T20:59:36.991Z,101986
2018-03-21T21:04:40.084Z,101984
2018-03-21T21:09:44.539Z,101975
2018-03-21T21:14:48.049Z,101971
2018-03-21T21:19:51.145Z,101962
2018-03-21T21:24:55.704Z,101967
2018-03-21T21:30:00.400Z,101961
2018-03-21T21:35:04.240Z,101950
2018-03-21T21:40:08.852Z,101947
2018-03-21T21:45:11.943Z,101940
2018-03-21T21:50:16.392Z,101931
2018-03-21T21:55:20.309Z,101932
2018-03-21T22:00:23.424Z,101926
2018-03-21T22:05:26.516Z,101922
2018-03-21T22:10:30.963Z,101906
2018-03-21T22:15:35.168Z,101897
2018-03-21T22:20:39.359Z,101892
2018-03-21T22:25:42.876Z,101879
2018-03-21T22:30:46.353Z,101872
2018-03-21T22:35:50.567Z,101871
2018-03-21T22:40:53.652Z,101864
2018-03-21T22:45:57.138Z,101855
2018-03-21T22:51:00.228Z,101849
2018-03-21T22:56:03.717Z,101846
2018-03-21T23:01:08.154Z,101840
2018-03-21T23:06:11.257Z,101830
2018-03-21T23:11:16.823Z,101819
2018-03-21T23:16:20.133Z,101816
2018-03-21T23:21:23.628Z,101809
2018-03-21T23:26:27.516Z,101807
2018-03-21T23:31:30.592Z,101800
2018-03-21T23:36:35.281Z,101790
2018-03-21T23:41:38.764Z,101779
2018-03-21T23:46:43.022Z,101778
2018-03-21T23:51:47.480Z,101771
2018-03-21T23:56:52.091Z,101763
